sensor_id;sensor_type;location;lat;lon;timestamp;pressure;altitude;pressure_sealevel;temperature;humidity
64616;BME280;51027;42.162;24.754;2023-08-12T03:32:15;100075.59;;;19.49;74.15
64616;BME280;51027;42.162;24.754;2023-08-12T03:34:41;100071.44;;;19.45;74.52
64616;BME280;51027;42.162;24.754;2023-08-12T03:37:06;100084.69;;;19.59;74.37
64616;BME280;51027;42.162;24.754;2023-08-12T03:39:32;100078.25;;;19.49;74.32
64616;BME280;51027;42.162;24.754;2023-08-12T03:41:58;100090.78;;;19.61;74.27
64616;BME280;51027;42.162;24.754;2023-08-12T03:44:23;100085.75;;;19.69;74.14
64616;BME280;51027;42.162;24.754;2023-08-12T03:46:48;100094.84;;;19.79;73.62
64616;BME280;51027;42.162;24.754;2023-08-12T03:49:14;100085.97;;;19.79;73.23
64616;BME280;51027;42.162;24.754;2023-08-12T03:51:39;100094.28;;;20.00;73.32
64616;BME280;51027;42.162;24.754;2023-08-12T03:54:05;100108.09;;;19.94;73.11
64616;BME280;51027;42.162;24.754;2023-08-12T03:56:30;100111.91;;;20.02;72.52
64616;BME280;51027;42.162;24.754;2023-08-12T03:58:56;100110.44;;;19.98;72.73
64616;BME280;51027;42.162;24.754;2023-08-12T04:01:21;100039.81;;;19.64;72.46
64616;BME280;51027;42.162;24.754;2023-08-12T04:03:47;100110.63;;;20.08;72.40
64616;BME280;51027;42.162;24.754;2023-08-12T04:06:12;100108.50;;;20.13;72.49
64616;BME280;51027;42.162;24.754;2023-08-12T04:08:38;100121.97;;;19.99;72.64
64616;BME280;51027;42.162;24.754;2023-08-12T04:11:03;100103.72;;;19.93;72.85
64616;BME280;51027;42.162;24.754;2023-08-12T04:13:29;100107.22;;;19.55;73.60
64616;BME280;51027;42.162;24.754;2023-08-12T04:15:54;100109.06;;;19.67;73.97
64616;BME280;51027;42.162;24.754;2023-08-12T04:18:19;100114.41;;;19.80;73.67
64616;BME280;51027;42.162;24.754;2023-08-12T04:20:46;100121.78;;;19.89;73.69
64616;BME280;51027;42.162;24.754;2023-08-12T04:23:13;100120.94;;;19.76;74.40
64616;BME280;51027;42.162;24.754;2023-08-12T04:25:38;100111.13;;;19.64;75.46
64616;BME280;51027;42.162;24.754;2023-08-12T04:28:04;100110.31;;;19.36;76.88
64616;BME280;51027;42.162;24.754;2023-08-12T04:30:29;100119.13;;;19.64;77.01
64616;BME280;51027;42.162;24.754;2023-08-12T04:32:55;100109.06;;;19.67;77.07
64616;BME280;51027;42.162;24.754;2023-08-12T04:35:20;100124.78;;;19.84;76.59
64616;BME280;51027;42.162;24.754;2023-08-12T04:37:45;100120.09;;;19.63;77.33
64616;BME280;51027;42.162;24.754;2023-08-12T04:40:11;100114.75;;;19.63;77.76
64616;BME280;51027;42.162;24.754;2023-08-12T04:42:36;100116.13;;;19.68;77.92
64616;BME280;51027;42.162;24.754;2023-08-12T04:45:02;100121.47;;;19.55;79.00
64616;BME280;51027;42.162;24.754;2023-08-12T04:47:28;100122.34;;;19.56;78.97
64616;BME280;51027;42.162;24.754;2023-08-12T04:49:54;100090.34;;;19.54;78.21
64616;BME280;51027;42.162;24.754;2023-08-12T04:52:20;100131.09;;;19.71;78.63
64616;BME280;51027;42.162;24.754;2023-08-12T04:54:46;100138.06;;;19.73;79.05
64616;BME280;51027;42.162;24.754;2023-08-12T04:57:11;100129.81;;;19.64;79.51
64616;BME280;51027;42.162;24.754;2023-08-12T04:59:37;100130.78;;;19.63;79.30
64616;BME280;51027;42.162;24.754;2023-08-12T05:02:02;100133.25;;;19.66;79.26
64616;BME280;51027;42.162;24.754;2023-08-12T05:04:28;100123.25;;;19.55;79.87
64616;BME280;51027;42.162;24.754;2023-08-12T05:06:53;100139.09;;;19.58;80.12
64616;BME280;51027;42.162;24.754;2023-08-12T05:09:19;100137.72;;;19.78;79.33
64616;BME280;51027;42.162;24.754;2023-08-12T05:11:44;100129.25;;;19.71;79.47
64616;BME280;51027;42.162;24.754;2023-08-12T05:14:10;100146.56;;;19.91;78.63
64616;BME280;51027;42.162;24.754;2023-08-12T05:16:35;100142.53;;;19.73;79.35
64616;BME280;51027;42.162;24.754;2023-08-12T05:19:00;100127.97;;;19.90;78.52
64616;BME280;51027;42.162;24.754;2023-08-12T05:21:26;100141.78;;;19.96;78.10
64616;BME280;51027;42.162;24.754;2023-08-12T05:23:52;100142.63;;;19.97;77.65
64616;BME280;51027;42.162;24.754;2023-08-12T05:26:17;100131.63;;;19.63;78.52
64616;BME280;51027;42.162;24.754;2023-08-12T05:28:43;100126.28;;;19.63;78.62
64616;BME280;51027;42.162;24.754;2023-08-12T05:31:08;100133.75;;;19.71;79.05
64616;BME280;51027;42.162;24.754;2023-08-12T05:33:33;100150.09;;;19.92;78.22
64616;BME280;51027;42.162;24.754;2023-08-12T05:35:59;100156.22;;;19.94;77.87
64616;BME280;51027;42.162;24.754;2023-08-12T05:38:24;100156.50;;;20.02;77.70
64616;BME280;51027;42.162;24.754;2023-08-12T05:40:49;100147.22;;;19.82;78.40
64616;BME280;51027;42.162;24.754;2023-08-12T05:43:15;100144.47;;;19.83;78.63
64616;BME280;51027;42.162;24.754;2023-08-12T05:45:40;100139.53;;;19.90;77.95
64616;BME280;51027;42.162;24.754;2023-08-12T05:48:06;100134.50;;;19.98;78.02
64616;BME280;51027;42.162;24.754;2023-08-12T05:50:31;100140.13;;;20.19;77.67
64616;BME280;51027;42.162;24.754;2023-08-12T05:52:56;100131.66;;;20.25;76.90
64616;BME280;51027;42.162;24.754;2023-08-12T05:55:22;100128.75;;;20.28;76.48
64616;BME280;51027;42.162;24.754;2023-08-12T05:57:47;100128.88;;;20.27;76.66
64616;BME280;51027;42.162;24.754;2023-08-12T06:00:13;100123.06;;;20.33;76.06
64616;BME280;51027;42.162;24.754;2023-08-12T06:02:38;100120.75;;;20.28;76.17
64616;BME280;51027;42.162;24.754;2023-08-12T06:05:04;100123.59;;;20.38;75.74
64616;BME280;51027;42.162;24.754;2023-08-12T06:07:30;100122.63;;;20.52;74.91
64616;BME280;51027;42.162;24.754;2023-08-12T06:09:55;100130.03;;;20.48;75.23
64616;BME280;51027;42.162;24.754;2023-08-12T06:12:21;100126.81;;;20.43;75.20
64616;BME280;51027;42.162;24.754;2023-08-12T06:14:46;100122.34;;;20.44;75.17
64616;BME280;51027;42.162;24.754;2023-08-12T06:17:11;100118.75;;;20.56;74.92
64616;BME280;51027;42.162;24.754;2023-08-12T06:19:37;100116.16;;;20.67;74.35
64616;BME280;51027;42.162;24.754;2023-08-12T06:22:02;100115.41;;;20.65;73.49
64616;BME280;51027;42.162;24.754;2023-08-12T06:24:28;100114.41;;;20.90;73.18
64616;BME280;51027;42.162;24.754;2023-08-12T06:26:53;100105.25;;;20.81;72.55
64616;BME280;51027;42.162;24.754;2023-08-12T06:29:19;100120.94;;;21.10;72.53
64616;BME280;51027;42.162;24.754;2023-08-12T06:31:44;100110.09;;;21.11;71.28
64616;BME280;51027;42.162;24.754;2023-08-12T06:34:10;100116.16;;;21.26;71.02
64616;BME280;51027;42.162;24.754;2023-08-12T06:36:35;100109.28;;;21.22;70.94
64616;BME280;51027;42.162;24.754;2023-08-12T06:39:00;100116.22;;;21.24;70.45
64616;BME280;51027;42.162;24.754;2023-08-12T06:41:26;100111.47;;;21.74;69.64
64616;BME280;51027;42.162;24.754;2023-08-12T06:43:51;100104.78;;;21.69;67.85
64616;BME280;51027;42.162;24.754;2023-08-12T06:46:17;100121.34;;;21.96;66.80
64616;BME280;51027;42.162;24.754;2023-08-12T06:48:42;100101.88;;;22.28;66.31
64616;BME280;51027;42.162;24.754;2023-08-12T06:51:07;100103.13;;;22.56;65.09
64616;BME280;51027;42.162;24.754;2023-08-12T06:53:36;100100.13;;;22.81;64.45
64616;BME280;51027;42.162;24.754;2023-08-12T06:56:01;100113.91;;;22.77;63.49
64616;BME280;51027;42.162;24.754;2023-08-12T06:58:27;100077.91;;;22.79;63.04
64616;BME280;51027;42.162;24.754;2023-08-12T07:00:52;100104.50;;;23.14;62.94
64616;BME280;51027;42.162;24.754;2023-08-12T07:03:19;100113.38;;;23.26;61.83
64616;BME280;51027;42.162;24.754;2023-08-12T07:05:44;100096.19;;;23.38;61.57
64616;BME280;51027;42.162;24.754;2023-08-12T07:08:10;100121.00;;;23.63;59.95
64616;BME280;51027;42.162;24.754;2023-08-12T07:10:41;100077.06;;;23.32;59.67
64616;BME280;51027;42.162;24.754;2023-08-12T07:13:07;100110.53;;;23.69;58.62
64616;BME280;51027;42.162;24.754;2023-08-12T07:15:32;100103.59;;;23.67;57.10
64616;BME280;51027;42.162;24.754;2023-08-12T07:17:58;100105.94;;;23.81;56.94
64616;BME280;51027;42.162;24.754;2023-08-12T07:20:27;100111.16;;;23.73;57.41
64616;BME280;51027;42.162;24.754;2023-08-12T07:22:52;100105.13;;;23.90;56.35
64616;BME280;51027;42.162;24.754;2023-08-12T07:25:17;100095.81;;;23.94;56.19
64616;BME280;51027;42.162;24.754;2023-08-12T07:27:43;100092.56;;;24.00;55.88
64616;BME280;51027;42.162;24.754;2023-08-12T07:30:09;100110.97;;;24.35;55.89
64616;BME280;51027;42.162;24.754;2023-08-12T07:32:36;100098.78;;;24.41;55.03
64616;BME280;51027;42.162;24.754;2023-08-12T07:35:02;100096.28;;;24.68;55.74
64616;BME280;51027;42.162;24.754;2023-08-12T07:37:28;100091.75;;;24.79;54.27
64616;BME280;51027;42.162;24.754;2023-08-12T07:39:54;100086.81;;;24.84;54.27
64616;BME280;51027;42.162;24.754;2023-08-12T07:42:19;100098.16;;;24.87;53.71
64616;BME280;51027;42.162;24.754;2023-08-12T07:44:45;100093.91;;;24.85;53.43
64616;BME280;51027;42.162;24.754;2023-08-12T07:47:10;100078.72;;;24.93;53.37
64616;BME280;51027;42.162;24.754;2023-08-12T07:49:36;100102.13;;;25.12;52.89
64616;BME280;51027;42.162;24.754;2023-08-12T07:52:01;100089.91;;;25.27;52.75
64616;BME280;51027;42.162;24.754;2023-08-12T07:54:27;100091.59;;;25.48;52.55
64616;BME280;51027;42.162;24.754;2023-08-12T07:56:52;100094.69;;;25.43;51.07
64616;BME280;51027;42.162;24.754;2023-08-12T07:59:19;100084.38;;;25.39;51.76
64616;BME280;51027;42.162;24.754;2023-08-12T08:01:45;100089.53;;;25.69;51.58
64616;BME280;51027;42.162;24.754;2023-08-12T08:04:10;100086.28;;;25.66;50.06
64616;BME280;51027;42.162;24.754;2023-08-12T08:06:36;100078.03;;;25.77;49.99
64616;BME280;51027;42.162;24.754;2023-08-12T08:09:01;100080.13;;;25.83;49.66
64616;BME280;51027;42.162;24.754;2023-08-12T08:11:29;100078.03;;;26.04;48.96
64616;BME280;51027;42.162;24.754;2023-08-12T08:13:55;100073.22;;;26.26;48.75
64616;BME280;51027;42.162;24.754;2023-08-12T08:16:20;100074.81;;;26.46;48.04
64616;BME280;51027;42.162;24.754;2023-08-12T08:18:46;100057.50;;;26.49;47.80
64616;BME280;51027;42.162;24.754;2023-08-12T08:21:11;100073.50;;;26.78;48.14
64616;BME280;51027;42.162;24.754;2023-08-12T08:23:36;100071.75;;;26.77;47.16
64616;BME280;51027;42.162;24.754;2023-08-12T08:26:02;100076.63;;;26.91;46.11
64616;BME280;51027;42.162;24.754;2023-08-12T08:28:27;100065.88;;;27.17;47.00
64616;BME280;51027;42.162;24.754;2023-08-12T08:30:53;100078.34;;;27.36;45.96
64616;BME280;51027;42.162;24.754;2023-08-12T08:33:19;100067.44;;;27.45;46.32
64616;BME280;51027;42.162;24.754;2023-08-12T08:35:44;100064.50;;;26.95;45.83
64616;BME280;51027;42.162;24.754;2023-08-12T08:38:09;100073.53;;;27.47;45.06
64616;BME280;51027;42.162;24.754;2023-08-12T08:40:36;100065.06;;;27.68;44.95
64616;BME280;51027;42.162;24.754;2023-08-12T08:43:03;100048.94;;;27.93;44.33
64616;BME280;51027;42.162;24.754;2023-08-12T08:45:32;100063.31;;;27.59;43.12
64616;BME280;51027;42.162;24.754;2023-08-12T08:48:00;100066.97;;;27.76;43.91
64616;BME280;51027;42.162;24.754;2023-08-12T08:50:27;100050.03;;;28.16;43.48
64616;BME280;51027;42.162;24.754;2023-08-12T08:52:55;100051.25;;;28.22;43.10
64616;BME280;51027;42.162;24.754;2023-08-12T08:55:22;100045.25;;;28.02;43.80
64616;BME280;51027;42.162;24.754;2023-08-12T08:57:48;100053.69;;;28.33;42.64
64616;BME280;51027;42.162;24.754;2023-08-12T09:00:18;100049.47;;;27.96;42.99
64616;BME280;51027;42.162;24.754;2023-08-12T09:02:44;100042.84;;;28.33;42.94
64616;BME280;51027;42.162;24.754;2023-08-12T09:05:13;100034.78;;;28.07;42.45
64616;BME280;51027;42.162;24.754;2023-08-12T09:07:40;100031.53;;;28.46;42.23
64616;BME280;51027;42.162;24.754;2023-08-12T09:10:07;100028.47;;;28.40;41.58
64616;BME280;51027;42.162;24.754;2023-08-12T09:12:34;100023.25;;;28.63;41.74
64616;BME280;51027;42.162;24.754;2023-08-12T09:14:59;100026.63;;;28.65;41.31
64616;BME280;51027;42.162;24.754;2023-08-12T09:17:24;100015.81;;;29.14;40.72
64616;BME280;51027;42.162;24.754;2023-08-12T09:19:50;100022.75;;;29.09;40.54
64616;BME280;51027;42.162;24.754;2023-08-12T09:22:17;100019.88;;;29.18;39.89
64616;BME280;51027;42.162;24.754;2023-08-12T09:24:43;100005.63;;;29.24;39.35
64616;BME280;51027;42.162;24.754;2023-08-12T09:27:08;100012.03;;;29.32;39.15
64616;BME280;51027;42.162;24.754;2023-08-12T09:29:35;100012.19;;;29.54;38.90
64616;BME280;51027;42.162;24.754;2023-08-12T09:32:13;100010.97;;;29.57;39.07
64616;BME280;51027;42.162;24.754;2023-08-12T09:34:51;99998.81;;;29.37;38.82
64616;BME280;51027;42.162;24.754;2023-08-12T09:37:18;99994.25;;;29.21;38.52
64616;BME280;51027;42.162;24.754;2023-08-12T09:39:44;99995.78;;;29.23;38.72
64616;BME280;51027;42.162;24.754;2023-08-12T09:42:11;99993.09;;;29.15;37.91
64616;BME280;51027;42.162;24.754;2023-08-12T09:44:37;99997.19;;;28.95;38.18
64616;BME280;51027;42.162;24.754;2023-08-12T09:47:03;99977.47;;;29.17;37.44
64616;BME280;51027;42.162;24.754;2023-08-12T09:49:29;99981.75;;;29.04;37.15
64616;BME280;51027;42.162;24.754;2023-08-12T09:51:55;99976.03;;;29.46;36.84
64616;BME280;51027;42.162;24.754;2023-08-12T09:54:21;99988.22;;;29.66;36.88
64616;BME280;51027;42.162;24.754;2023-08-12T09:56:54;99976.88;;;29.46;36.75
64616;BME280;51027;42.162;24.754;2023-08-12T09:59:22;99970.94;;;29.90;36.36
64616;BME280;51027;42.162;24.754;2023-08-12T10:01:49;99973.44;;;30.00;36.29
64616;BME280;51027;42.162;24.754;2023-08-12T10:04:17;99979.53;;;30.10;36.88
64616;BME280;51027;42.162;24.754;2023-08-12T10:06:44;99983.78;;;30.04;36.03
64616;BME280;51027;42.162;24.754;2023-08-12T10:09:10;99962.44;;;30.24;35.62
64616;BME280;51027;42.162;24.754;2023-08-12T10:11:37;99960.19;;;30.05;35.27
64616;BME280;51027;42.162;24.754;2023-08-12T10:14:06;99972.84;;;29.81;35.30
64616;BME280;51027;42.162;24.754;2023-08-12T10:16:32;99961.44;;;29.63;35.34
64616;BME280;51027;42.162;24.754;2023-08-12T10:18:59;99961.34;;;29.79;35.58
64616;BME280;51027;42.162;24.754;2023-08-12T10:21:26;99955.81;;;29.96;35.13
64616;BME280;51027;42.162;24.754;2023-08-12T10:23:53;99956.59;;;30.13;34.90
64616;BME280;51027;42.162;24.754;2023-08-12T10:26:19;99953.22;;;30.10;35.33
64616;BME280;51027;42.162;24.754;2023-08-12T10:28:46;99947.59;;;30.04;35.30
64616;BME280;51027;42.162;24.754;2023-08-12T10:31:11;99953.41;;;30.01;35.66
64616;BME280;51027;42.162;24.754;2023-08-12T10:33:40;99955.50;;;30.22;34.64
64616;BME280;51027;42.162;24.754;2023-08-12T10:36:07;99947.53;;;30.20;34.71
64616;BME280;51027;42.162;24.754;2023-08-12T10:38:33;99945.56;;;30.06;34.87
64616;BME280;51027;42.162;24.754;2023-08-12T10:44:00;99934.31;;;30.17;35.34
64616;BME280;51027;42.162;24.754;2023-08-12T10:46:34;99942.50;;;30.55;35.45
64616;BME280;51027;42.162;24.754;2023-08-12T10:49:05;99918.50;;;30.21;34.59
64616;BME280;51027;42.162;24.754;2023-08-12T10:51:47;99930.66;;;30.02;34.87
64616;BME280;51027;42.162;24.754;2023-08-12T10:54:26;99927.13;;;30.24;34.91
64616;BME280;51027;42.162;24.754;2023-08-12T10:57:10;99923.03;;;30.28;34.75
64616;BME280;51027;42.162;24.754;2023-08-12T11:02:30;99914.22;;;30.26;35.39
64616;BME280;51027;42.162;24.754;2023-08-12T11:10:05;99912.03;;;30.67;34.02
64616;BME280;51027;42.162;24.754;2023-08-12T11:12:33;99904.31;;;30.10;34.56
64616;BME280;51027;42.162;24.754;2023-08-12T11:14:59;99897.59;;;29.67;35.26
64616;BME280;51027;42.162;24.754;2023-08-12T11:19:55;99903.91;;;29.12;35.41
64616;BME280;51027;42.162;24.754;2023-08-12T11:22:22;99900.94;;;29.38;35.51
64616;BME280;51027;42.162;24.754;2023-08-12T11:24:48;99894.81;;;30.29;34.78
64616;BME280;51027;42.162;24.754;2023-08-12T11:27:14;99893.00;;;30.22;34.54
64616;BME280;51027;42.162;24.754;2023-08-12T11:29:39;99900.38;;;30.36;35.11
64616;BME280;51027;42.162;24.754;2023-08-12T11:32:08;99888.84;;;30.72;34.61
64616;BME280;51027;42.162;24.754;2023-08-12T11:34:33;99902.00;;;30.45;34.23
64616;BME280;51027;42.162;24.754;2023-08-12T11:37:00;99851.06;;;29.70;35.50
64616;BME280;51027;42.162;24.754;2023-08-12T11:39:25;99869.56;;;29.75;35.17
64616;BME280;51027;42.162;24.754;2023-08-12T11:41:51;99875.53;;;29.93;34.87
64616;BME280;51027;42.162;24.754;2023-08-12T11:44:16;99879.41;;;29.37;36.01
64616;BME280;51027;42.162;24.754;2023-08-12T11:46:42;99873.53;;;29.17;36.34
64616;BME280;51027;42.162;24.754;2023-08-12T11:49:07;99881.84;;;29.15;36.35
64616;BME280;51027;42.162;24.754;2023-08-12T11:51:34;99873.19;;;29.12;36.49
64616;BME280;51027;42.162;24.754;2023-08-12T11:54:00;99873.75;;;28.99;37.20
64616;BME280;51027;42.162;24.754;2023-08-12T11:56:25;99867.84;;;29.04;36.97
64616;BME280;51027;42.162;24.754;2023-08-12T11:58:52;99868.50;;;29.06;36.68
64616;BME280;51027;42.162;24.754;2023-08-12T12:01:21;99876.50;;;29.38;36.63
64616;BME280;51027;42.162;24.754;2023-08-12T12:03:54;99870.97;;;30.17;36.10
64616;BME280;51027;42.162;24.754;2023-08-12T12:06:30;99869.66;;;30.50;34.88
64616;BME280;51027;42.162;24.754;2023-08-12T12:08:56;99868.03;;;30.41;34.79
64616;BME280;51027;42.162;24.754;2023-08-12T12:11:21;99861.00;;;30.70;33.80
64616;BME280;51027;42.162;24.754;2023-08-12T12:13:47;99861.97;;;31.06;33.39
64616;BME280;51027;42.162;24.754;2023-08-12T12:16:12;99852.03;;;31.28;34.13
64616;BME280;51027;42.162;24.754;2023-08-12T12:18:38;99857.06;;;30.72;34.55
64616;BME280;51027;42.162;24.754;2023-08-12T12:21:04;99851.47;;;30.51;35.53
64616;BME280;51027;42.162;24.754;2023-08-12T12:23:30;99840.22;;;30.54;35.66
64616;BME280;51027;42.162;24.754;2023-08-12T12:26:03;99848.38;;;30.54;35.03
64616;BME280;51027;42.162;24.754;2023-08-12T12:28:28;99838.00;;;30.20;35.21
64616;BME280;51027;42.162;24.754;2023-08-12T12:30:55;99841.44;;;30.36;35.18
64616;BME280;51027;42.162;24.754;2023-08-12T12:33:20;99840.34;;;30.23;35.65
64616;BME280;51027;42.162;24.754;2023-08-12T12:35:45;99838.97;;;30.27;35.66
64616;BME280;51027;42.162;24.754;2023-08-12T12:38:11;99850.22;;;29.93;35.84
64616;BME280;51027;42.162;24.754;2023-08-12T12:40:36;99839.94;;;29.88;36.13
64616;BME280;51027;42.162;24.754;2023-08-12T12:43:03;99835.22;;;29.82;36.23
64616;BME280;51027;42.162;24.754;2023-08-12T12:45:29;99823.81;;;29.64;36.62
64616;BME280;51027;42.162;24.754;2023-08-12T12:47:54;99836.25;;;29.50;36.40
64616;BME280;51027;42.162;24.754;2023-08-12T12:50:20;99841.66;;;29.58;37.45
64616;BME280;51027;42.162;24.754;2023-08-12T12:52:45;99846.91;;;29.60;36.75
64616;BME280;51027;42.162;24.754;2023-08-12T12:55:11;99837.69;;;29.69;37.77
64616;BME280;51027;42.162;24.754;2023-08-12T12:57:36;99831.88;;;29.49;37.35
64616;BME280;51027;42.162;24.754;2023-08-12T13:00:02;99827.94;;;29.51;37.57
64616;BME280;51027;42.162;24.754;2023-08-12T13:02:29;99828.81;;;29.44;37.07
64616;BME280;51027;42.162;24.754;2023-08-12T13:04:54;99823.53;;;29.42;37.89
64616;BME280;51027;42.162;24.754;2023-08-12T13:07:21;99822.19;;;29.46;36.32
64616;BME280;51027;42.162;24.754;2023-08-12T13:09:46;99827.28;;;29.41;35.86
64616;BME280;51027;42.162;24.754;2023-08-12T13:12:11;99811.72;;;29.35;35.82
64616;BME280;51027;42.162;24.754;2023-08-12T13:14:37;99819.50;;;29.38;35.30
64616;BME280;51027;42.162;24.754;2023-08-12T13:17:02;99823.72;;;29.49;36.07
64616;BME280;51027;42.162;24.754;2023-08-12T13:19:28;99817.13;;;29.43;35.41
64616;BME280;51027;42.162;24.754;2023-08-12T13:21:53;99830.66;;;29.51;35.63
64616;BME280;51027;42.162;24.754;2023-08-12T13:24:19;99817.28;;;29.42;35.76
64616;BME280;51027;42.162;24.754;2023-08-12T13:26:45;99827.72;;;29.61;35.75
64616;BME280;51027;42.162;24.754;2023-08-12T13:29:11;99822.47;;;29.60;35.86
64616;BME280;51027;42.162;24.754;2023-08-12T13:31:36;99814.69;;;29.57;35.52
64616;BME280;51027;42.162;24.754;2023-08-12T13:34:02;99812.13;;;29.63;36.40
64616;BME280;51027;42.162;24.754;2023-08-12T13:36:28;99822.72;;;29.73;36.25
64616;BME280;51027;42.162;24.754;2023-08-12T13:38:53;99815.72;;;29.78;35.80
64616;BME280;51027;42.162;24.754;2023-08-12T13:41:19;99820.69;;;29.75;36.12
64616;BME280;51027;42.162;24.754;2023-08-12T13:43:44;99822.72;;;29.73;36.14
64616;BME280;51027;42.162;24.754;2023-08-12T13:46:09;99807.16;;;29.67;35.37
64616;BME280;51027;42.162;24.754;2023-08-12T13:48:35;99819.00;;;29.74;36.43
64616;BME280;51027;42.162;24.754;2023-08-12T13:51:00;99819.34;;;29.71;36.65
64616;BME280;51027;42.162;24.754;2023-08-12T13:53:26;99822.09;;;29.63;36.48
64616;BME280;51027;42.162;24.754;2023-08-12T13:55:51;99816.41;;;29.49;36.52
64616;BME280;51027;42.162;24.754;2023-08-12T13:58:16;99810.16;;;29.49;35.85
64616;BME280;51027;42.162;24.754;2023-08-12T14:00:42;99804.31;;;29.60;36.54
64616;BME280;51027;42.162;24.754;2023-08-12T14:03:07;99824.25;;;29.75;35.94
64616;BME280;51027;42.162;24.754;2023-08-12T14:05:33;99816.31;;;29.66;36.61
64616;BME280;51027;42.162;24.754;2023-08-12T14:07:58;99811.69;;;29.74;36.78
64616;BME280;51027;42.162;24.754;2023-08-12T14:10:24;99805.41;;;29.74;35.98
64616;BME280;51027;42.162;24.754;2023-08-12T14:12:49;99822.66;;;29.81;35.45
64616;BME280;51027;42.162;24.754;2023-08-12T14:15:15;99806.91;;;29.76;35.91
64616;BME280;51027;42.162;24.754;2023-08-12T14:17:40;99803.69;;;29.73;35.19
64616;BME280;51027;42.162;24.754;2023-08-12T14:20:06;99808.53;;;29.63;35.34
64616;BME280;51027;42.162;24.754;2023-08-12T14:22:34;99812.41;;;29.68;35.72
64616;BME280;51027;42.162;24.754;2023-08-12T14:25:00;99811.84;;;29.73;35.27
64616;BME280;51027;42.162;24.754;2023-08-12T14:27:25;99809.25;;;29.79;35.20
64616;BME280;51027;42.162;24.754;2023-08-12T14:29:54;99807.28;;;29.96;34.76
64616;BME280;51027;42.162;24.754;2023-08-12T14:32:19;99800.88;;;29.89;34.96
64616;BME280;51027;42.162;24.754;2023-08-12T14:34:45;99800.75;;;29.82;34.72
64616;BME280;51027;42.162;24.754;2023-08-12T14:37:12;99812.81;;;29.80;35.28
64616;BME280;51027;42.162;24.754;2023-08-12T14:39:38;99808.22;;;29.80;35.68
64616;BME280;51027;42.162;24.754;2023-08-12T14:42:04;99807.22;;;29.81;35.49
64616;BME280;51027;42.162;24.754;2023-08-12T14:44:30;99807.22;;;29.81;34.96
64616;BME280;51027;42.162;24.754;2023-08-12T14:46:58;99811.31;;;29.77;35.78
64616;BME280;51027;42.162;24.754;2023-08-12T14:49:24;99806.34;;;29.81;34.99
64616;BME280;51027;42.162;24.754;2023-08-12T14:51:49;99793.94;;;29.64;35.67
64616;BME280;51027;42.162;24.754;2023-08-12T14:54:15;99805.09;;;29.69;35.42
64616;BME280;51027;42.162;24.754;2023-08-12T14:56:40;99804.63;;;29.65;35.09
64616;BME280;51027;42.162;24.754;2023-08-12T14:59:06;99798.06;;;29.51;34.79
64616;BME280;51027;42.162;24.754;2023-08-12T15:01:31;99794.53;;;29.51;35.81
64616;BME280;51027;42.162;24.754;2023-08-12T15:03:57;99796.59;;;29.41;35.51
64616;BME280;51027;42.162;24.754;2023-08-12T15:06:22;99804.03;;;29.47;36.04
64616;BME280;51027;42.162;24.754;2023-08-12T15:08:48;99810.47;;;29.54;36.26
64616;BME280;51027;42.162;24.754;2023-08-12T15:11:14;99793.69;;;29.50;35.48
64616;BME280;51027;42.162;24.754;2023-08-12T15:13:39;99794.38;;;29.44;36.46
64616;BME280;51027;42.162;24.754;2023-08-12T15:16:05;99792.38;;;29.38;36.04
64616;BME280;51027;42.162;24.754;2023-08-12T15:18:30;99793.03;;;29.40;36.25
64616;BME280;51027;42.162;24.754;2023-08-12T15:20:56;99803.63;;;29.27;36.28
64616;BME280;51027;42.162;24.754;2023-08-12T15:23:21;99799.44;;;29.16;36.32
64616;BME280;51027;42.162;24.754;2023-08-12T15:25:47;99798.19;;;29.27;36.38
64616;BME280;51027;42.162;24.754;2023-08-12T15:28:13;99791.78;;;29.20;36.57
64616;BME280;51027;42.162;24.754;2023-08-12T15:30:38;99795.16;;;29.22;36.59
64616;BME280;51027;42.162;24.754;2023-08-12T15:33:05;99794.91;;;29.09;36.92
64616;BME280;51027;42.162;24.754;2023-08-12T15:35:30;99794.06;;;29.08;37.31
64616;BME280;51027;42.162;24.754;2023-08-12T15:37:56;99791.03;;;29.03;36.86
64616;BME280;51027;42.162;24.754;2023-08-12T15:40:21;99800.34;;;29.01;36.99
64616;BME280;51027;42.162;24.754;2023-08-12T15:42:46;99795.47;;;28.96;36.89
64616;BME280;51027;42.162;24.754;2023-08-12T15:45:15;99797.69;;;28.92;36.84
64616;BME280;51027;42.162;24.754;2023-08-12T15:47:40;99809.88;;;28.96;36.78
64616;BME280;51027;42.162;24.754;2023-08-12T15:50:07;99799.22;;;28.95;37.20
64616;BME280;51027;42.162;24.754;2023-08-12T15:52:33;99805.66;;;28.86;36.81
64616;BME280;51027;42.162;24.754;2023-08-12T15:55:01;99800.56;;;28.91;37.34
64616;BME280;51027;42.162;24.754;2023-08-12T15:57:27;99801.75;;;28.80;37.49
64616;BME280;51027;42.162;24.754;2023-08-12T15:59:56;99803.13;;;28.84;37.64
64616;BME280;51027;42.162;24.754;2023-08-12T16:02:21;99797.53;;;28.78;37.63
64616;BME280;51027;42.162;24.754;2023-08-12T16:04:46;99791.66;;;28.66;37.52
64616;BME280;51027;42.162;24.754;2023-08-12T16:07:13;99804.19;;;28.67;37.36
64616;BME280;51027;42.162;24.754;2023-08-12T16:09:38;99806.03;;;28.66;38.20
64616;BME280;51027;42.162;24.754;2023-08-12T16:12:04;99800.13;;;28.63;37.94
64616;BME280;51027;42.162;24.754;2023-08-12T16:14:29;99802.19;;;28.61;38.01
64616;BME280;51027;42.162;24.754;2023-08-12T16:16:55;99800.84;;;28.49;38.76
64616;BME280;51027;42.162;24.754;2023-08-12T16:19:20;99799.47;;;28.53;38.53
64616;BME280;51027;42.162;24.754;2023-08-12T16:21:46;99798.97;;;28.49;39.55
64616;BME280;51027;42.162;24.754;2023-08-12T16:24:11;99801.38;;;28.44;39.27